PWSweather.com
Personal Weather Stations
Station Observations
PHMDWX
Perry Hall, MD 21236

Perry Hall, MD 21236

Lat: 39.418318, Lon: -76.490039

Elevation: 305

Station Type: Davis Vantage Pro

Latest ConditionsUpdated 2:30:04 PM EST Sunday, Nov 19, 2017
Currently Today's Max Today's Min Today's Average
Temperature 48.3°F9.1°C 61.2°F16.2°C 46.4°F8.0°C 52.6°F11.4°C
Dew Point 29.0°F-1.7°C 55.3°F12.9°C 29.0°F-1.7°C 41.3°F5.2°C
Winds 7.7 mph NW12.4 kmh NW 21.3 mph W34.3 kmh W - 8.8 mph 14.2 kmh
Wind Gusts 10.0 mph16.1 kmh 37.0 mph59.5 kmh - -
Humidity 47% 95% 43% 67%
Pressure 29.67 in1004.7 mb 29.67 in1004.7 mb 29.25 in990.5 mb -
Precipitation - 0.29 in7.4 mm - -
Hour Temp Dew Point Humidity Winds Wind Gusts Pressure Precip Precip Rate Daily Precip Total
02:30 PM 48.3°F9.1°C 29.0°F-1.7°C 47% 7.7 mph NW12.4 kmh NW 10.0 mph16.1 kmh 29.67 in1004.7 mb - 0.00 in0.0 mm 0.29 in7.4 mm
02:00 PM 48.6°F9.2°C 29.8°F-1.2°C 48% 10.1 mph NW16.3 kmh NW 13.0 mph20.9 kmh 29.67 in1004.7 mb - 0.00 in0.0 mm 0.29 in7.4 mm
01:30 PM 49.5°F9.7°C 30.6°F-0.8°C 48% 10.4 mph W16.7 kmh W 19.0 mph30.6 kmh 29.65 in1004.1 mb - 0.00 in0.0 mm 0.29 in7.4 mm
01:00 PM 52.2°F11.2°C 30.3°F-0.9°C 43% 11.7 mph NW18.8 kmh NW 19.0 mph30.6 kmh 29.64 in1003.7 mb - 0.00 in0.0 mm 0.29 in7.4 mm
12:30 PM 51.6°F10.9°C 33.0°F0.6°C 49% 11.0 mph WSW17.7 kmh WSW 17.0 mph27.4 kmh 29.64 in1003.7 mb - 0.00 in0.0 mm 0.29 in7.4 mm
12:00 PM 52.5°F11.4°C 33.4°F0.8°C 48% 11.9 mph W19.2 kmh W 21.0 mph33.8 kmh 29.63 in1003.4 mb - 0.00 in0.0 mm 0.29 in7.4 mm
11:30 AM 51.2°F10.7°C 34.2°F1.2°C 52% 4.5 mph W7.2 kmh W 8.0 mph12.9 kmh 29.64 in1003.7 mb - 0.00 in0.0 mm 0.29 in7.4 mm
11:00 AM 51.6°F10.9°C 33.6°F0.9°C 50% 13.6 mph W21.9 kmh W 36.0 mph57.9 kmh 29.62 in1003.0 mb - 0.00 in0.0 mm 0.29 in7.4 mm
10:30 AM 49.4°F9.7°C 34.3°F1.3°C 56% 9.0 mph W14.5 kmh W 21.0 mph33.8 kmh 29.62 in1003.0 mb - 0.00 in0.0 mm 0.29 in7.4 mm
10:00 AM 50.2°F10.1°C 34.2°F1.2°C 54% 11.3 mph W18.2 kmh W 20.0 mph32.2 kmh 29.59 in1002.0 mb - 0.00 in0.0 mm 0.29 in7.4 mm
09:30 AM 50.2°F10.1°C 34.2°F1.2°C 54% 8.8 mph WNW14.2 kmh WNW 10.0 mph16.1 kmh 29.57 in1001.4 mb - 0.00 in0.0 mm 0.29 in7.4 mm
09:00 AM 49.2°F9.6°C 34.2°F1.2°C 56% 11.6 mph WSW18.7 kmh WSW 22.0 mph35.4 kmh 29.55 in1000.7 mb - 0.00 in0.0 mm 0.29 in7.4 mm
08:30 AM 48.2°F9.0°C 34.1°F1.2°C 58% 12.6 mph NNW20.3 kmh NNW 19.0 mph30.6 kmh 29.54 in1000.3 mb - 0.00 in0.0 mm 0.29 in7.4 mm
08:00 AM 47.4°F8.6°C 33.8°F1.0°C 59% 21.3 mph W34.3 kmh W 37.0 mph59.5 kmh 29.52 in999.7 mb - 0.00 in0.0 mm 0.29 in7.4 mm
07:30 AM 46.4°F8.0°C 34.5°F1.4°C 63% 11.8 mph WSW19.0 kmh WSW 17.0 mph27.4 kmh 29.49 in998.6 mb - 0.00 in0.0 mm 0.29 in7.4 mm
07:00 AM 46.8°F8.2°C 35.3°F1.8°C 64% 8.9 mph W14.3 kmh W 16.0 mph25.7 kmh 29.46 in997.6 mb - 0.00 in0.0 mm 0.29 in7.4 mm
06:30 AM 48.3°F9.1°C 37.5°F3.1°C 66% 9.4 mph W15.1 kmh W 17.0 mph27.4 kmh 29.43 in996.6 mb - 0.00 in0.0 mm 0.29 in7.4 mm
06:00 AM 49.4°F9.7°C 39.7°F4.3°C 69% 9.7 mph NW15.6 kmh NW 18.0 mph29.0 kmh 29.38 in994.9 mb - 0.01 in0.3 mm 0.29 in7.4 mm
05:30 AM 51.1°F10.6°C 43.1°F6.2°C 74% 9.7 mph WSW15.6 kmh WSW 17.0 mph27.4 kmh 29.36 in994.2 mb - 0.00 in0.0 mm 0.28 in7.1 mm
05:00 AM 56.5°F13.6°C 54.8°F12.7°C 94% 11.9 mph W19.2 kmh W 17.0 mph27.4 kmh 29.29 in991.9 mb - 0.10 in2.5 mm 0.28 in7.1 mm
04:30 AM 57.3°F14.1°C 55.3°F12.9°C 93% 6.1 mph WNW9.8 kmh WNW 12.0 mph19.3 kmh 29.27 in991.2 mb - 0.02 in0.5 mm 0.18 in4.6 mm
04:00 AM 56.9°F13.8°C 55.2°F12.9°C 94% 4.6 mph S7.4 kmh S 12.0 mph19.3 kmh 29.26 in990.9 mb - 0.00 in0.0 mm 0.16 in4.1 mm
03:30 AM 56.6°F13.7°C 55.2°F12.9°C 95% 2.7 mph S4.3 kmh S 5.0 mph8.0 kmh 29.26 in990.9 mb - 0.00 in0.0 mm 0.16 in4.1 mm
03:00 AM 56.6°F13.7°C 54.9°F12.7°C 94% 4.7 mph SSE7.6 kmh SSE 8.0 mph12.9 kmh 29.25 in990.5 mb - 0.00 in0.0 mm 0.16 in4.1 mm
02:30 AM 56.7°F13.7°C 54.4°F12.4°C 92% 8.3 mph SSE13.4 kmh SSE 16.0 mph25.7 kmh 29.29 in991.9 mb - 0.01 in0.3 mm 0.16 in4.1 mm
02:00 AM 56.7°F13.7°C 54.1°F12.3°C 91% 0.5 mph S0.8 kmh S 2.0 mph3.2 kmh 29.32 in992.9 mb - 0.05 in1.3 mm 0.15 in3.8 mm
01:30 AM 57.7°F14.3°C 53.9°F12.2°C 87% 4.2 mph S6.8 kmh S 7.0 mph11.3 kmh 29.34 in993.6 mb - 0.08 in2.0 mm 0.10 in2.5 mm
01:00 AM 58.7°F14.8°C 51.2°F10.7°C 76% 4.5 mph SSE7.2 kmh SSE 11.0 mph17.7 kmh 29.33 in993.2 mb - 0.02 in0.5 mm 0.02 in0.5 mm
12:30 AM 60.5°F15.8°C 51.0°F10.6°C 71% 7.0 mph S11.3 kmh S 13.0 mph20.9 kmh 29.35 in993.9 mb - 0.00 in0.0 mm 0.00 in0.0 mm
12:00 AM 61.2°F16.2°C 50.6°F10.3°C 68% 5.5 mph SW8.9 kmh SW 13.0 mph20.9 kmh 29.36 in994.2 mb - 0.00 in0.0 mm 0.00 in0.0 mm